sensor_id;sensor_type;location;lat;lon;timestamp;P1;durP1;ratioP1;P2;durP2;ratioP2
6249;SDS011;3158;52.148;11.568;2022-11-20T00:04:32;6.87;;;4.27;;
6249;SDS011;3158;52.148;11.568;2022-11-20T00:09:33;7.37;;;4.77;;
6249;SDS011;3158;52.148;11.568;2022-11-20T00:14:34;11.63;;;5.60;;
6249;SDS011;3158;52.148;11.568;2022-11-20T00:19:35;10.70;;;5.97;;
6249;SDS011;3158;52.148;11.568;2022-11-20T00:24:36;8.00;;;5.60;;
6249;SDS011;3158;52.148;11.568;2022-11-20T00:29:38;10.50;;;5.73;;
6249;SDS011;3158;52.148;11.568;2022-11-20T00:34:39;10.23;;;5.60;;
6249;SDS011;3158;52.148;11.568;2022-11-20T00:39:40;10.27;;;5.03;;
6249;SDS011;3158;52.148;11.568;2022-11-20T00:44:41;12.40;;;5.90;;
6249;SDS011;3158;52.148;11.568;2022-11-20T00:49:42;13.73;;;6.03;;
6249;SDS011;3158;52.148;11.568;2022-11-20T00:54:43;8.73;;;5.33;;
6249;SDS011;3158;52.148;11.568;2022-11-20T00:59:44;13.53;;;5.60;;
6249;SDS011;3158;52.148;11.568;2022-11-20T01:04:46;8.03;;;4.93;;
6249;SDS011;3158;52.148;11.568;2022-11-20T01:09:47;8.63;;;5.07;;
6249;SDS011;3158;52.148;11.568;2022-11-20T01:14:48;7.87;;;4.60;;
6249;SDS011;3158;52.148;11.568;2022-11-20T01:19:49;9.97;;;5.70;;
6249;SDS011;3158;52.148;11.568;2022-11-20T01:24:50;11.80;;;6.47;;
6249;SDS011;3158;52.148;11.568;2022-11-20T01:29:52;13.63;;;5.20;;
6249;SDS011;3158;52.148;11.568;2022-11-20T01:34:53;10.57;;;5.23;;
6249;SDS011;3158;52.148;11.568;2022-11-20T01:39:54;9.40;;;5.97;;
6249;SDS011;3158;52.148;11.568;2022-11-20T01:44:56;20.20;;;5.63;;
6249;SDS011;3158;52.148;11.568;2022-11-20T01:49:59;10.37;;;5.83;;
6249;SDS011;3158;52.148;11.568;2022-11-20T01:55:07;6.67;;;4.33;;
6249;SDS011;3158;52.148;11.568;2022-11-20T02:00:10;9.93;;;5.73;;
6249;SDS011;3158;52.148;11.568;2022-11-20T02:05:18;8.47;;;5.23;;
6249;SDS011;3158;52.148;11.568;2022-11-20T02:10:20;7.40;;;5.57;;
6249;SDS011;3158;52.148;11.568;2022-11-20T02:15:22;7.77;;;4.93;;
6249;SDS011;3158;52.148;11.568;2022-11-20T02:20:23;7.17;;;5.50;;
6249;SDS011;3158;52.148;11.568;2022-11-20T02:25:24;6.50;;;4.77;;
6249;SDS011;3158;52.148;11.568;2022-11-20T02:30:26;8.50;;;4.90;;
6249;SDS011;3158;52.148;11.568;2022-11-20T02:40:28;12.27;;;4.73;;
6249;SDS011;3158;52.148;11.568;2022-11-20T02:45:30;9.40;;;5.13;;
6249;SDS011;3158;52.148;11.568;2022-11-20T02:50:31;9.40;;;5.10;;
6249;SDS011;3158;52.148;11.568;2022-11-20T02:55:32;11.07;;;5.27;;
6249;SDS011;3158;52.148;11.568;2022-11-20T03:00:34;8.67;;;5.60;;
6249;SDS011;3158;52.148;11.568;2022-11-20T03:05:35;10.67;;;6.00;;
6249;SDS011;3158;52.148;11.568;2022-11-20T03:10:36;13.30;;;5.97;;
6249;SDS011;3158;52.148;11.568;2022-11-20T03:15:37;11.43;;;6.20;;
6249;SDS011;3158;52.148;11.568;2022-11-20T03:20:39;8.87;;;5.40;;
6249;SDS011;3158;52.148;11.568;2022-11-20T03:25:40;12.43;;;5.63;;
6249;SDS011;3158;52.148;11.568;2022-11-20T03:30:41;9.83;;;5.70;;
6249;SDS011;3158;52.148;11.568;2022-11-20T03:35:42;9.43;;;5.73;;
6249;SDS011;3158;52.148;11.568;2022-11-20T03:40:43;10.53;;;5.10;;
6249;SDS011;3158;52.148;11.568;2022-11-20T03:45:44;11.53;;;5.03;;
6249;SDS011;3158;52.148;11.568;2022-11-20T03:50:46;11.37;;;5.57;;
6249;SDS011;3158;52.148;11.568;2022-11-20T03:55:51;8.87;;;4.73;;
6249;SDS011;3158;52.148;11.568;2022-11-20T04:00:52;6.33;;;4.20;;
6249;SDS011;3158;52.148;11.568;2022-11-20T04:05:53;5.77;;;4.43;;
6249;SDS011;3158;52.148;11.568;2022-11-20T04:10:54;7.37;;;5.13;;
6249;SDS011;3158;52.148;11.568;2022-11-20T04:15:57;11.57;;;5.50;;
6249;SDS011;3158;52.148;11.568;2022-11-20T04:20:58;5.77;;;4.33;;
6249;SDS011;3158;52.148;11.568;2022-11-20T04:26:07;9.73;;;4.87;;
6249;SDS011;3158;52.148;11.568;2022-11-20T04:31:12;8.57;;;5.17;;
6249;SDS011;3158;52.148;11.568;2022-11-20T04:36:17;5.83;;;4.97;;
6249;SDS011;3158;52.148;11.568;2022-11-20T04:41:20;11.70;;;4.87;;
6249;SDS011;3158;52.148;11.568;2022-11-20T04:46:21;8.77;;;4.80;;
6249;SDS011;3158;52.148;11.568;2022-11-20T04:51:22;5.83;;;4.27;;
6249;SDS011;3158;52.148;11.568;2022-11-20T04:56:24;5.93;;;4.53;;
6249;SDS011;3158;52.148;11.568;2022-11-20T05:01:25;8.37;;;4.90;;
6249;SDS011;3158;52.148;11.568;2022-11-20T05:06:26;9.27;;;4.63;;
6249;SDS011;3158;52.148;11.568;2022-11-20T05:11:27;6.90;;;4.67;;
6249;SDS011;3158;52.148;11.568;2022-11-20T05:16:29;7.50;;;4.40;;
6249;SDS011;3158;52.148;11.568;2022-11-20T05:21:30;7.80;;;4.40;;
6249;SDS011;3158;52.148;11.568;2022-11-20T05:26:34;7.73;;;5.23;;
6249;SDS011;3158;52.148;11.568;2022-11-20T05:31:36;10.10;;;4.53;;
6249;SDS011;3158;52.148;11.568;2022-11-20T05:36:37;5.10;;;4.43;;
6249;SDS011;3158;52.148;11.568;2022-11-20T05:41:38;5.47;;;4.53;;
6249;SDS011;3158;52.148;11.568;2022-11-20T05:46:39;7.90;;;4.23;;
6249;SDS011;3158;52.148;11.568;2022-11-20T05:51:40;8.60;;;4.57;;
6249;SDS011;3158;52.148;11.568;2022-11-20T05:56:41;6.93;;;4.03;;
6249;SDS011;3158;52.148;11.568;2022-11-20T06:01:43;6.60;;;4.83;;
6249;SDS011;3158;52.148;11.568;2022-11-20T06:06:44;7.17;;;4.10;;
6249;SDS011;3158;52.148;11.568;2022-11-20T06:11:45;6.03;;;3.77;;
6249;SDS011;3158;52.148;11.568;2022-11-20T06:16:46;5.87;;;3.23;;
6249;SDS011;3158;52.148;11.568;2022-11-20T06:21:48;8.03;;;4.67;;
6249;SDS011;3158;52.148;11.568;2022-11-20T06:26:49;4.87;;;3.70;;
6249;SDS011;3158;52.148;11.568;2022-11-20T06:31:51;4.33;;;3.80;;
6249;SDS011;3158;52.148;11.568;2022-11-20T06:36:52;6.20;;;4.17;;
6249;SDS011;3158;52.148;11.568;2022-11-20T06:41:53;4.00;;;2.97;;
6249;SDS011;3158;52.148;11.568;2022-11-20T06:46:54;8.93;;;3.93;;
6249;SDS011;3158;52.148;11.568;2022-11-20T06:51:55;9.23;;;3.70;;
6249;SDS011;3158;52.148;11.568;2022-11-20T06:56:56;7.57;;;4.07;;
6249;SDS011;3158;52.148;11.568;2022-11-20T07:01:58;4.43;;;3.10;;
6249;SDS011;3158;52.148;11.568;2022-11-20T07:06:59;5.67;;;2.97;;
6249;SDS011;3158;52.148;11.568;2022-11-20T07:12:00;5.70;;;3.20;;
6249;SDS011;3158;52.148;11.568;2022-11-20T07:17:02;4.93;;;3.40;;
6249;SDS011;3158;52.148;11.568;2022-11-20T07:22:03;6.07;;;3.17;;
6249;SDS011;3158;52.148;11.568;2022-11-20T07:27:04;6.37;;;3.60;;
6249;SDS011;3158;52.148;11.568;2022-11-20T07:32:06;6.13;;;3.43;;
6249;SDS011;3158;52.148;11.568;2022-11-20T07:37:07;6.93;;;4.57;;
6249;SDS011;3158;52.148;11.568;2022-11-20T07:42:08;6.80;;;4.40;;
6249;SDS011;3158;52.148;11.568;2022-11-20T07:47:12;5.40;;;3.67;;
6249;SDS011;3158;52.148;11.568;2022-11-20T07:52:13;5.57;;;3.97;;
6249;SDS011;3158;52.148;11.568;2022-11-20T07:57:15;6.63;;;4.20;;
6249;SDS011;3158;52.148;11.568;2022-11-20T08:02:16;10.90;;;6.00;;
6249;SDS011;3158;52.148;11.568;2022-11-20T08:07:17;4.23;;;3.50;;
6249;SDS011;3158;52.148;11.568;2022-11-20T08:12:19;6.93;;;4.60;;
6249;SDS011;3158;52.148;11.568;2022-11-20T08:17:39;11.00;;;5.70;;
6249;SDS011;3158;52.148;11.568;2022-11-20T08:22:42;7.37;;;4.03;;
6249;SDS011;3158;52.148;11.568;2022-11-20T08:27:44;4.20;;;3.80;;
6249;SDS011;3158;52.148;11.568;2022-11-20T08:32:45;3.87;;;3.60;;
6249;SDS011;3158;52.148;11.568;2022-11-20T08:37:46;5.07;;;3.60;;
6249;SDS011;3158;52.148;11.568;2022-11-20T08:42:48;5.57;;;3.30;;
6249;SDS011;3158;52.148;11.568;2022-11-20T08:47:49;5.77;;;3.10;;
6249;SDS011;3158;52.148;11.568;2022-11-20T08:52:51;3.63;;;3.33;;
6249;SDS011;3158;52.148;11.568;2022-11-20T08:57:52;3.97;;;3.53;;
6249;SDS011;3158;52.148;11.568;2022-11-20T09:02:53;4.70;;;3.17;;
6249;SDS011;3158;52.148;11.568;2022-11-20T09:07:57;5.05;;;3.35;;
6249;SDS011;3158;52.148;11.568;2022-11-20T09:12:59;3.93;;;3.20;;
6249;SDS011;3158;52.148;11.568;2022-11-20T09:18:01;5.75;;;3.83;;
6249;SDS011;3158;52.148;11.568;2022-11-20T09:23:02;5.40;;;3.22;;
6249;SDS011;3158;52.148;11.568;2022-11-20T09:28:04;4.97;;;3.20;;
6249;SDS011;3158;52.148;11.568;2022-11-20T09:33:05;4.90;;;4.40;;
6249;SDS011;3158;52.148;11.568;2022-11-20T09:38:06;4.20;;;3.17;;
6249;SDS011;3158;52.148;11.568;2022-11-20T09:59:02;2.40;;;2.20;;
6249;SDS011;3158;52.148;11.568;2022-11-20T10:04:06;4.35;;;3.45;;
6249;SDS011;3158;52.148;11.568;2022-11-20T10:24:56;2.87;;;2.67;;
6249;SDS011;3158;52.148;11.568;2022-11-20T10:30:02;2.83;;;2.58;;
6249;SDS011;3158;52.148;11.568;2022-11-20T10:35:14;3.75;;;2.78;;
6249;SDS011;3158;52.148;11.568;2022-11-20T10:50:26;2.92;;;2.63;;
6249;SDS011;3158;52.148;11.568;2022-11-20T10:55:39;2.53;;;2.28;;
6249;SDS011;3158;52.148;11.568;2022-11-20T11:00:41;4.55;;;2.60;;
6249;SDS011;3158;52.148;11.568;2022-11-20T11:05:44;3.22;;;2.95;;
6249;SDS011;3158;52.148;11.568;2022-11-20T11:10:57;2.50;;;2.03;;
6249;SDS011;3158;52.148;11.568;2022-11-20T11:15:58;2.70;;;2.50;;
6249;SDS011;3158;52.148;11.568;2022-11-20T11:21:00;3.08;;;2.70;;
6249;SDS011;3158;52.148;11.568;2022-11-20T11:26:03;2.38;;;2.28;;
6249;SDS011;3158;52.148;11.568;2022-11-20T11:31:05;1.70;;;1.60;;
6249;SDS011;3158;52.148;11.568;2022-11-20T11:36:16;1.20;;;1.20;;
6249;SDS011;3158;52.148;11.568;2022-11-20T11:41:25;1.10;;;1.10;;
6249;SDS011;3158;52.148;11.568;2022-11-20T11:46:30;1.23;;;1.23;;
6249;SDS011;3158;52.148;11.568;2022-11-20T11:56:52;1.35;;;1.25;;
6249;SDS011;3158;52.148;11.568;2022-11-20T12:01:57;1.65;;;1.60;;
6249;SDS011;3158;52.148;11.568;2022-11-20T12:07:08;1.75;;;1.50;;
6249;SDS011;3158;52.148;11.568;2022-11-20T12:12:18;1.70;;;1.70;;
6249;SDS011;3158;52.148;11.568;2022-11-20T12:17:20;1.92;;;1.83;;
6249;SDS011;3158;52.148;11.568;2022-11-20T12:22:34;2.15;;;2.05;;
6249;SDS011;3158;52.148;11.568;2022-11-20T12:43:28;3.45;;;2.63;;
6249;SDS011;3158;52.148;11.568;2022-11-20T12:49:00;1.98;;;1.70;;
6249;SDS011;3158;52.148;11.568;2022-11-20T13:09:40;1.60;;;1.50;;
6249;SDS011;3158;52.148;11.568;2022-11-20T13:20:20;2.20;;;2.10;;
6249;SDS011;3158;52.148;11.568;2022-11-20T13:25:31;2.65;;;2.28;;
6249;SDS011;3158;52.148;11.568;2022-11-20T13:30:33;2.90;;;1.73;;
6249;SDS011;3158;52.148;11.568;2022-11-20T13:35:40;2.45;;;2.25;;
6249;SDS011;3158;52.148;11.568;2022-11-20T13:40:52;2.28;;;2.08;;
6249;SDS011;3158;52.148;11.568;2022-11-20T13:45:54;2.15;;;2.00;;
6249;SDS011;3158;52.148;11.568;2022-11-20T14:01:08;2.00;;;1.90;;
6249;SDS011;3158;52.148;11.568;2022-11-20T14:06:29;3.10;;;2.58;;
6249;SDS011;3158;52.148;11.568;2022-11-20T14:11:32;1.83;;;1.73;;
6249;SDS011;3158;52.148;11.568;2022-11-20T14:16:34;1.50;;;1.40;;
6249;SDS011;3158;52.148;11.568;2022-11-20T14:21:36;1.05;;;1.05;;
6249;SDS011;3158;52.148;11.568;2022-11-20T14:26:37;2.05;;;1.33;;
6249;SDS011;3158;52.148;11.568;2022-11-20T14:31:42;1.70;;;1.60;;
6249;SDS011;3158;52.148;11.568;2022-11-20T14:36:43;1.67;;;1.58;;
6249;SDS011;3158;52.148;11.568;2022-11-20T14:41:51;2.40;;;2.20;;
6249;SDS011;3158;52.148;11.568;2022-11-20T14:46:52;2.80;;;2.53;;
6249;SDS011;3158;52.148;11.568;2022-11-20T14:52:01;2.45;;;2.35;;
6249;SDS011;3158;52.148;11.568;2022-11-20T14:57:03;2.15;;;1.95;;
6249;SDS011;3158;52.148;11.568;2022-11-20T15:02:10;1.88;;;1.77;;
6249;SDS011;3158;52.148;11.568;2022-11-20T15:07:22;2.30;;;1.85;;
6249;SDS011;3158;52.148;11.568;2022-11-20T15:12:24;4.60;;;3.00;;
6249;SDS011;3158;52.148;11.568;2022-11-20T15:17:25;2.40;;;2.30;;
6249;SDS011;3158;52.148;11.568;2022-11-20T15:22:26;2.55;;;2.45;;
6249;SDS011;3158;52.148;11.568;2022-11-20T15:27:27;2.15;;;2.00;;
6249;SDS011;3158;52.148;11.568;2022-11-20T15:32:29;2.45;;;2.35;;
6249;SDS011;3158;52.148;11.568;2022-11-20T15:37:30;2.63;;;2.53;;
6249;SDS011;3158;52.148;11.568;2022-11-20T15:42:31;4.97;;;3.28;;
6249;SDS011;3158;52.148;11.568;2022-11-20T15:47:33;3.42;;;2.70;;
6249;SDS011;3158;52.148;11.568;2022-11-20T15:52:35;3.47;;;3.17;;
6249;SDS011;3158;52.148;11.568;2022-11-20T15:57:37;3.20;;;2.90;;
6249;SDS011;3158;52.148;11.568;2022-11-20T16:02:38;5.45;;;4.32;;
6249;SDS011;3158;52.148;11.568;2022-11-20T16:07:39;4.78;;;4.32;;
6249;SDS011;3158;52.148;11.568;2022-11-20T16:12:40;5.70;;;4.75;;
6249;SDS011;3158;52.148;11.568;2022-11-20T16:18:00;5.53;;;4.68;;
6249;SDS011;3158;52.148;11.568;2022-11-20T16:23:01;4.13;;;3.80;;
6249;SDS011;3158;52.148;11.568;2022-11-20T16:28:02;4.22;;;3.83;;
6249;SDS011;3158;52.148;11.568;2022-11-20T16:33:03;6.53;;;4.55;;
6249;SDS011;3158;52.148;11.568;2022-11-20T16:38:05;5.78;;;4.47;;
6249;SDS011;3158;52.148;11.568;2022-11-20T16:43:10;4.35;;;3.92;;
6249;SDS011;3158;52.148;11.568;2022-11-20T16:48:15;3.83;;;3.53;;
6249;SDS011;3158;52.148;11.568;2022-11-20T16:53:17;8.05;;;4.50;;
6249;SDS011;3158;52.148;11.568;2022-11-20T16:58:18;7.70;;;4.57;;
6249;SDS011;3158;52.148;11.568;2022-11-20T17:03:19;5.07;;;3.75;;
6249;SDS011;3158;52.148;11.568;2022-11-20T17:08:21;6.57;;;4.23;;
6249;SDS011;3158;52.148;11.568;2022-11-20T17:13:22;6.53;;;3.67;;
6249;SDS011;3158;52.148;11.568;2022-11-20T17:18:23;5.97;;;4.28;;
6249;SDS011;3158;52.148;11.568;2022-11-20T17:23:24;6.90;;;4.28;;
6249;SDS011;3158;52.148;11.568;2022-11-20T17:28:27;7.90;;;5.60;;
6249;SDS011;3158;52.148;11.568;2022-11-20T17:33:28;9.20;;;6.23;;
6249;SDS011;3158;52.148;11.568;2022-11-20T17:38:30;7.05;;;4.93;;
6249;SDS011;3158;52.148;11.568;2022-11-20T17:43:31;8.77;;;5.72;;
6249;SDS011;3158;52.148;11.568;2022-11-20T17:48:33;9.73;;;5.65;;
6249;SDS011;3158;52.148;11.568;2022-11-20T17:53:35;14.05;;;7.05;;
6249;SDS011;3158;52.148;11.568;2022-11-20T17:58:37;9.73;;;6.55;;
6249;SDS011;3158;52.148;11.568;2022-11-20T18:03:38;10.57;;;6.03;;
6249;SDS011;3158;52.148;11.568;2022-11-20T18:08:39;9.00;;;6.03;;
6249;SDS011;3158;52.148;11.568;2022-11-20T18:13:41;6.50;;;5.33;;
6249;SDS011;3158;52.148;11.568;2022-11-20T18:19:01;15.07;;;7.80;;
6249;SDS011;3158;52.148;11.568;2022-11-20T18:24:04;13.43;;;7.70;;
6249;SDS011;3158;52.148;11.568;2022-11-20T18:29:05;9.57;;;7.53;;
6249;SDS011;3158;52.148;11.568;2022-11-20T18:34:07;17.03;;;8.97;;
6249;SDS011;3158;52.148;11.568;2022-11-20T18:39:12;16.57;;;8.77;;
6249;SDS011;3158;52.148;11.568;2022-11-20T18:44:24;18.70;;;8.90;;
6249;SDS011;3158;52.148;11.568;2022-11-20T18:49:46;15.60;;;8.43;;
6249;SDS011;3158;52.148;11.568;2022-11-20T18:54:52;15.70;;;7.97;;
6249;SDS011;3158;52.148;11.568;2022-11-20T18:59:54;16.33;;;7.90;;
6249;SDS011;3158;52.148;11.568;2022-11-20T19:04:58;10.00;;;6.67;;
6249;SDS011;3158;52.148;11.568;2022-11-20T19:09:59;14.73;;;7.37;;
6249;SDS011;3158;52.148;11.568;2022-11-20T19:15:01;13.03;;;6.90;;
6249;SDS011;3158;52.148;11.568;2022-11-20T19:20:02;11.03;;;6.93;;
6249;SDS011;3158;52.148;11.568;2022-11-20T19:25:03;12.20;;;6.10;;
6249;SDS011;3158;52.148;11.568;2022-11-20T19:30:05;10.13;;;6.03;;
6249;SDS011;3158;52.148;11.568;2022-11-20T19:35:06;9.73;;;6.07;;
6249;SDS011;3158;52.148;11.568;2022-11-20T19:40:07;14.27;;;7.17;;
6249;SDS011;3158;52.148;11.568;2022-11-20T19:45:08;10.73;;;6.47;;
6249;SDS011;3158;52.148;11.568;2022-11-20T19:50:10;14.43;;;6.60;;
6249;SDS011;3158;52.148;11.568;2022-11-20T19:55:11;13.67;;;7.67;;
6249;SDS011;3158;52.148;11.568;2022-11-20T20:00:12;12.43;;;6.87;;
6249;SDS011;3158;52.148;11.568;2022-11-20T20:05:13;15.03;;;7.07;;
6249;SDS011;3158;52.148;11.568;2022-11-20T20:10:14;17.60;;;7.40;;
6249;SDS011;3158;52.148;11.568;2022-11-20T20:15:17;15.13;;;7.20;;
6249;SDS011;3158;52.148;11.568;2022-11-20T20:20:18;16.37;;;7.77;;
6249;SDS011;3158;52.148;11.568;2022-11-20T20:25:19;15.13;;;8.10;;
6249;SDS011;3158;52.148;11.568;2022-11-20T20:30:21;20.17;;;9.53;;
6249;SDS011;3158;52.148;11.568;2022-11-20T20:35:22;18.90;;;9.70;;
6249;SDS011;3158;52.148;11.568;2022-11-20T20:40:23;12.70;;;8.73;;
6249;SDS011;3158;52.148;11.568;2022-11-20T20:45:24;13.47;;;8.40;;
6249;SDS011;3158;52.148;11.568;2022-11-20T20:50:25;14.57;;;7.73;;
6249;SDS011;3158;52.148;11.568;2022-11-20T20:55:26;16.67;;;9.07;;
6249;SDS011;3158;52.148;11.568;2022-11-20T21:00:27;20.67;;;10.50;;
6249;SDS011;3158;52.148;11.568;2022-11-20T21:05:28;18.07;;;8.63;;
6249;SDS011;3158;52.148;11.568;2022-11-20T21:10:30;23.50;;;9.37;;
6249;SDS011;3158;52.148;11.568;2022-11-20T21:15:31;16.17;;;8.83;;
6249;SDS011;3158;52.148;11.568;2022-11-20T21:20:32;13.10;;;8.07;;
6249;SDS011;3158;52.148;11.568;2022-11-20T21:25:52;12.53;;;7.23;;
6249;SDS011;3158;52.148;11.568;2022-11-20T21:31:00;14.27;;;7.47;;
6249;SDS011;3158;52.148;11.568;2022-11-20T21:36:01;17.67;;;7.77;;
6249;SDS011;3158;52.148;11.568;2022-11-20T21:41:03;21.03;;;11.20;;
6249;SDS011;3158;52.148;11.568;2022-11-20T21:46:06;24.73;;;9.93;;
6249;SDS011;3158;52.148;11.568;2022-11-20T21:51:08;19.53;;;9.90;;
6249;SDS011;3158;52.148;11.568;2022-11-20T21:56:10;14.50;;;8.10;;
6249;SDS011;3158;52.148;11.568;2022-11-20T22:01:15;15.90;;;9.00;;
6249;SDS011;3158;52.148;11.568;2022-11-20T22:06:17;20.03;;;8.27;;
6249;SDS011;3158;52.148;11.568;2022-11-20T22:11:19;14.10;;;8.40;;
6249;SDS011;3158;52.148;11.568;2022-11-20T22:16:21;13.63;;;8.25;;
6249;SDS011;3158;52.148;11.568;2022-11-20T22:21:23;10.32;;;7.00;;
6249;SDS011;3158;52.148;11.568;2022-11-20T22:26:25;11.90;;;6.72;;
6249;SDS011;3158;52.148;11.568;2022-11-20T22:31:27;12.38;;;6.60;;
6249;SDS011;3158;52.148;11.568;2022-11-20T22:36:30;9.10;;;5.93;;
6249;SDS011;3158;52.148;11.568;2022-11-20T22:41:31;13.32;;;6.30;;
6249;SDS011;3158;52.148;11.568;2022-11-20T22:46:33;11.43;;;5.22;;
6249;SDS011;3158;52.148;11.568;2022-11-20T22:51:37;7.72;;;4.72;;
6249;SDS011;3158;52.148;11.568;2022-11-20T22:56:39;9.27;;;5.10;;
6249;SDS011;3158;52.148;11.568;2022-11-20T23:01:40;7.13;;;4.73;;
6249;SDS011;3158;52.148;11.568;2022-11-20T23:06:41;7.40;;;5.60;;
6249;SDS011;3158;52.148;11.568;2022-11-20T23:11:42;6.95;;;5.90;;
6249;SDS011;3158;52.148;11.568;2022-11-20T23:16:44;9.70;;;5.45;;
6249;SDS011;3158;52.148;11.568;2022-11-20T23:21:45;7.97;;;4.97;;
6249;SDS011;3158;52.148;11.568;2022-11-20T23:26:46;7.47;;;5.10;;
6249;SDS011;3158;52.148;11.568;2022-11-20T23:31:49;14.07;;;7.00;;
6249;SDS011;3158;52.148;11.568;2022-11-20T23:36:50;14.83;;;6.50;;
6249;SDS011;3158;52.148;11.568;2022-11-20T23:41:51;12.63;;;5.40;;
6249;SDS011;3158;52.148;11.568;2022-11-20T23:46:52;12.77;;;5.47;;
6249;SDS011;3158;52.148;11.568;2022-11-20T23:51:54;8.47;;;5.53;;
6249;SDS011;3158;52.148;11.568;2022-11-20T23:56:55;10.80;;;6.50;;
